Chincoteague, Virginia
Current Conditions -  °F | °C
As of 3:54 PM on Saturday 20 Dec 2014 (Local Time) from KWAL Reporting Station
Overcast Overcast  
Wind Chill: 36°   Ceiling: 10000
Heat Index: 36°   Visibility: 10mi
Dew Point: 25°   Wind: 3mph
Humidity: 64%   Direction: 330°NNW
Pressure: 30.27"   Gusts: NA
Location:  37.862°N, 75.4636°W
Report Text: KWAL 202054Z AUTO 33003KT 10SM OVC100 02/M04 A3027 RMK AO2 SLP247 T00221039 56002
Loading
Personal Weather Stations






























Interactive Weather Map New forecast layout! Learn more

10-Day Weather Forecast

Advertisements
Track Severe Weather on mobile